Dripping Springs' Hourly Summary for Sunday, July 8, 2018
Hour Temp
(f)
RH
(%)
Solar Rad.
(MJ/m2)
Rainfall
(in)
Wind
(mph)
7/8/2018 12:00 AM 74 85 0 0 0.15
7/8/2018 1:00 AM 72 91 0 0 0.01
7/8/2018 2:00 AM 71 94 0 0 0
7/8/2018 3:00 AM 70 95 0 0 0
7/8/2018 4:00 AM 70 96 0 0 0.28
7/8/2018 5:00 AM 69 97 0 0 0.28
7/8/2018 6:00 AM 69 97 0.01 0 0.18
7/8/2018 7:00 AM 69 97 0.15 0 0
7/8/2018 8:00 AM 72 97 0.33 0 2.15
7/8/2018 9:00 AM 74 95 0.76 0 2.15
7/8/2018 10:00 AM 79 81 2.07 0 2.57
7/8/2018 11:00 AM 82 67 2.28 0 3.55
7/8/2018 12:00 PM 84 57 2.28 0 4.56
7/8/2018 1:00 PM 87 53 3.21 0 4.56
7/8/2018 2:00 PM 88 46 3.21 0 5.76
7/8/2018 3:00 PM 89 45 2.48 0 5.86
7/8/2018 4:00 PM 89 44 1.99 0 5.86
7/8/2018 5:00 PM 90 44 1.14 0 7.18
7/8/2018 6:00 PM 90 42 1.14 0.75 7.18
7/8/2018 7:00 PM 82 92 0.52 0.02 6.28
7/8/2018 8:00 PM 76 92 0.52 0 3.14
7/8/2018 9:00 PM 76 93 0.08 0 3.14
7/8/2018 10:00 PM 75 93 0 0 1.52
7/8/2018 11:00 PM 75 91 0 0 0.66
Data Summary 78 78 22.17 0.77 2.79